createdAt,value
2018-08-25T00:00:43.513Z,9.63
2018-08-25T00:03:11.302Z,10.17
2018-08-25T00:05:39.143Z,9.80
2018-08-25T00:08:06.923Z,9.20
2018-08-25T00:10:34.718Z,8.60
2018-08-25T00:13:02.571Z,9.23
2018-08-25T00:15:30.405Z,9.17
2018-08-25T00:17:58.183Z,9.23
2018-08-25T00:20:25.959Z,9.00
2018-08-25T00:22:53.809Z,8.93
2018-08-25T00:25:21.580Z,9.93
2018-08-25T00:27:49.431Z,6.90
2018-08-25T00:30:22.424Z,8.13
2018-08-25T00:32:50.222Z,6.30
2018-08-25T00:35:18.052Z,6.67
2018-08-25T00:37:45.817Z,7.20
2018-08-25T00:40:13.684Z,6.60
2018-08-25T00:42:41.449Z,7.20
2018-08-25T00:45:09.333Z,6.60
2018-08-25T00:47:37.133Z,6.33
2018-08-25T00:50:05.119Z,6.83
2018-08-25T00:52:32.938Z,7.47
2018-08-25T00:55:00.720Z,7.50
2018-08-25T00:57:28.558Z,8.30
2018-08-25T00:59:56.281Z,7.17
2018-08-25T01:02:24.455Z,8.40
2018-08-25T01:04:52.264Z,7.03
2018-08-25T01:07:20.017Z,7.33
2018-08-25T01:09:47.804Z,8.03
2018-08-25T01:12:15.565Z,8.70
2018-08-25T01:14:43.331Z,7.37
2018-08-25T01:17:11.090Z,7.73
2018-08-25T01:19:38.859Z,6.80
2018-08-25T01:22:06.672Z,7.80
2018-08-25T01:24:34.512Z,7.10
2018-08-25T01:27:02.366Z,6.57
2018-08-25T01:29:30.111Z,8.00
2018-08-25T01:31:57.916Z,7.00
2018-08-25T01:34:25.748Z,7.10
2018-08-25T01:36:53.521Z,6.63
2018-08-25T01:39:21.283Z,6.87
2018-08-25T01:41:49.031Z,9.93
2018-08-25T01:44:16.815Z,7.67
2018-08-25T01:46:44.579Z,6.70
2018-08-25T01:49:12.439Z,6.53
2018-08-25T01:51:40.210Z,6.97
2018-08-25T01:54:08.080Z,7.50
2018-08-25T01:56:35.837Z,7.20
2018-08-25T01:59:03.883Z,7.80
2018-08-25T02:01:31.679Z,7.63
2018-08-25T02:03:59.435Z,7.40
2018-08-25T02:06:27.192Z,7.33
2018-08-25T02:08:54.966Z,7.63
2018-08-25T02:11:22.729Z,7.27
2018-08-25T02:13:50.507Z,8.50
2018-08-25T02:16:18.266Z,7.07
2018-08-25T02:18:46.022Z,7.47
2018-08-25T02:21:13.795Z,6.80
2018-08-25T02:23:41.557Z,7.13
2018-08-25T02:26:09.324Z,6.50
2018-08-25T02:28:37.084Z,7.60
2018-08-25T02:31:04.855Z,7.03
2018-08-25T02:33:32.628Z,8.30
2018-08-25T02:36:00.390Z,7.70
2018-08-25T02:38:28.164Z,7.10
2018-08-25T02:40:56.020Z,7.13
2018-08-25T02:43:23.785Z,11.87
2018-08-25T02:45:51.652Z,6.93
2018-08-25T02:48:19.424Z,10.57
2018-08-25T02:50:47.286Z,7.43
2018-08-25T02:53:15.047Z,7.13
2018-08-25T02:55:42.800Z,6.80
2018-08-25T02:58:10.585Z,7.73
2018-08-25T03:00:38.250Z,7.53
2018-08-25T03:03:06.117Z,7.63
2018-08-25T03:05:33.877Z,6.30
2018-08-25T03:08:01.624Z,7.20
2018-08-25T03:10:29.399Z,9.33
2018-08-25T03:12:57.157Z,7.23
2018-08-25T03:15:24.947Z,7.93
2018-08-25T03:17:52.915Z,8.00
2018-08-25T03:20:20.659Z,7.50
2018-08-25T03:22:48.464Z,6.67
2018-08-25T03:25:16.299Z,7.13
2018-08-25T03:27:43.960Z,6.97
2018-08-25T03:30:11.741Z,8.33
2018-08-25T03:32:39.589Z,7.53
2018-08-25T03:35:07.343Z,7.43
2018-08-25T03:37:35.134Z,8.23
2018-08-25T03:40:02.995Z,8.80
2018-08-25T03:42:30.760Z,7.47
2018-08-25T03:44:58.529Z,8.47
2018-08-25T03:47:26.365Z,7.73
2018-08-25T03:49:54.146Z,8.33
2018-08-25T03:52:21.916Z,7.47
2018-08-25T03:54:49.678Z,7.13
2018-08-25T03:57:17.452Z,7.20
2018-08-25T03:59:45.220Z,6.90
2018-08-25T04:02:12.973Z,7.80
2018-08-25T04:04:40.743Z,10.00
2018-08-25T04:07:08.513Z,7.63
2018-08-25T04:09:36.291Z,7.53
2018-08-25T04:12:04.038Z,8.37
2018-08-25T04:14:31.794Z,7.37
2018-08-25T04:16:59.565Z,8.77
2018-08-25T04:19:27.327Z,8.90
2018-08-25T04:21:55.122Z,7.50
2018-08-25T04:24:22.852Z,7.70
2018-08-25T04:26:50.634Z,8.17
2018-08-25T04:29:18.508Z,9.60
2018-08-25T04:31:46.292Z,9.50
2018-08-25T04:34:14.142Z,10.93
2018-08-25T04:36:42.017Z,10.23
2018-08-25T04:39:11.261Z,15.57
2018-08-25T04:41:39.056Z,11.67
2018-08-25T04:44:06.990Z,11.97
2018-08-25T04:46:34.798Z,10.47
2018-08-25T04:49:02.765Z,12.97
2018-08-25T18:12:21.360Z,7.07
2018-08-25T18:14:48.998Z,8.40
2018-08-25T18:22:26.474Z,5.47
2018-08-25T18:24:54.125Z,5.13
2018-08-25T18:27:21.712Z,4.77
2018-08-25T18:29:49.570Z,6.60
2018-08-25T18:32:17.496Z,5.13
2018-08-25T18:34:45.154Z,7.33
2018-08-25T18:37:12.994Z,5.47
2018-08-25T18:39:40.962Z,5.77
2018-08-25T18:42:08.909Z,3.77
2018-08-25T18:44:37.299Z,6.17
2018-08-25T18:47:22.815Z,4.93
2018-08-25T18:50:09.860Z,4.80
2018-08-25T18:52:57.379Z,3.30
2018-08-25T18:55:47.294Z,3.93
2018-08-25T18:58:36.216Z,5.70
2018-08-25T19:01:08.523Z,5.53
2018-08-25T19:03:36.305Z,4.40
2018-08-25T19:06:04.020Z,4.73
2018-08-25T19:08:31.949Z,3.50
2018-08-25T19:10:59.946Z,4.70
2018-08-25T19:13:27.793Z,4.60
2018-08-25T19:15:55.715Z,8.53
2018-08-25T19:18:23.639Z,3.23
2018-08-25T19:20:51.660Z,3.00
2018-08-25T19:23:19.582Z,2.50
2018-08-25T19:25:47.511Z,3.47
2018-08-25T19:28:15.465Z,3.73
2018-08-25T19:30:43.405Z,3.20
2018-08-25T19:33:11.284Z,3.33
2018-08-25T19:35:39.372Z,3.07
2018-08-25T19:38:07.314Z,3.40
2018-08-25T19:40:35.245Z,2.90
2018-08-25T19:43:03.182Z,3.90
2018-08-25T19:45:31.230Z,3.40
2018-08-25T19:47:59.222Z,2.90
2018-08-25T19:50:27.949Z,3.73
2018-08-25T19:52:55.983Z,4.03
2018-08-25T19:55:23.901Z,3.10
2018-08-25T19:57:51.907Z,3.20
2018-08-25T20:00:19.970Z,3.77
2018-08-25T20:02:47.877Z,3.77
2018-08-25T20:05:16.352Z,4.53
2018-08-25T20:07:44.846Z,2.90
2018-08-25T20:10:12.573Z,3.83
2018-08-25T20:12:40.209Z,2.80
2018-08-25T20:15:08.333Z,6.67
2018-08-25T20:17:36.294Z,3.63
2018-08-25T20:20:04.387Z,3.27
2018-08-25T20:22:32.510Z,2.90
2018-08-25T20:25:01.299Z,2.80
2018-08-25T20:27:28.936Z,4.27
2018-08-25T20:29:56.646Z,3.13
2018-08-25T20:32:24.245Z,3.50
2018-08-25T20:34:51.864Z,3.10
2018-08-25T20:37:19.778Z,3.80
2018-08-25T20:39:47.428Z,3.17
2018-08-25T20:42:15.088Z,3.53
2018-08-25T20:44:42.711Z,4.73
2018-08-25T20:47:10.357Z,3.80
2018-08-25T20:49:38.012Z,5.03
2018-08-25T20:52:05.727Z,5.50
2018-08-25T20:54:34.176Z,4.40
2018-08-25T20:57:01.798Z,4.63
2018-08-25T20:59:29.407Z,5.03
2018-08-25T21:01:57.016Z,4.97
2018-08-25T21:04:24.636Z,4.37
2018-08-25T21:06:52.490Z,4.93
2018-08-25T21:09:20.120Z,3.80
2018-08-25T21:11:47.754Z,4.00
2018-08-25T21:14:15.449Z,4.57
2018-08-25T21:16:43.081Z,4.30
2018-08-25T21:19:10.820Z,4.63
2018-08-25T21:21:38.427Z,5.13
2018-08-25T21:24:06.388Z,6.13
2018-08-25T21:26:34.004Z,5.77
2018-08-25T21:29:01.802Z,4.53
2018-08-25T21:31:29.402Z,5.37
2018-08-25T21:33:57.132Z,6.03
2018-08-25T21:36:24.731Z,5.73
2018-08-25T21:38:52.358Z,6.53
2018-08-25T21:41:19.982Z,8.23
2018-08-25T21:43:47.590Z,7.70
2018-08-25T21:46:15.184Z,5.20
2018-08-25T21:48:42.811Z,6.60
2018-08-25T21:51:10.555Z,5.93
2018-08-25T21:53:38.113Z,5.93
2018-08-25T21:56:05.733Z,5.77
2018-08-25T21:58:33.408Z,5.87
2018-08-25T22:01:01.044Z,5.33
2018-08-25T22:03:28.862Z,5.53
2018-08-25T22:05:57.325Z,5.37
2018-08-25T22:08:25.643Z,5.10
2018-08-25T22:10:54.010Z,5.90
2018-08-25T22:13:21.851Z,5.37
2018-08-25T22:15:49.788Z,7.07
2018-08-25T22:18:17.841Z,4.73
2018-08-25T22:20:45.453Z,4.80
2018-08-25T22:23:13.083Z,4.30
2018-08-25T22:25:40.673Z,4.03
2018-08-25T22:28:08.292Z,4.40
2018-08-25T22:30:35.880Z,4.07
2018-08-25T22:33:03.500Z,5.07
2018-08-25T22:35:31.078Z,3.60
2018-08-25T22:37:58.679Z,3.70
2018-08-25T22:40:26.270Z,7.03
2018-08-25T22:42:53.885Z,3.60
2018-08-25T22:45:21.861Z,3.60
2018-08-25T22:47:49.531Z,3.20
2018-08-25T22:50:17.224Z,3.63
2018-08-25T22:52:50.596Z,5.20
2018-08-25T22:55:18.981Z,3.90
2018-08-25T22:57:46.578Z,3.40
2018-08-25T23:00:14.203Z,4.87
2018-08-25T23:02:42.085Z,2.43
2018-08-25T23:05:09.696Z,5.63
2018-08-25T23:07:37.352Z,3.50
2018-08-25T23:10:05.108Z,3.10
2018-08-25T23:12:33.226Z,3.50
2018-08-25T23:15:00.853Z,4.40
2018-08-25T23:17:28.458Z,5.37
2018-08-25T23:19:56.311Z,4.43
2018-08-25T23:22:24.173Z,7.93
2018-08-25T23:24:51.797Z,3.90
2018-08-25T23:27:19.372Z,5.80
2018-08-25T23:29:47.050Z,2.60
2018-08-25T23:32:14.659Z,2.53
2018-08-25T23:34:42.263Z,3.13
2018-08-25T23:37:09.864Z,2.60
2018-08-25T23:39:37.476Z,3.90
2018-08-25T23:42:05.047Z,5.60
2018-08-25T23:44:32.640Z,3.70
2018-08-25T23:47:00.222Z,3.03
2018-08-25T23:49:27.808Z,2.60
2018-08-25T23:51:55.410Z,2.90
2018-08-25T23:54:22.969Z,2.53
2018-08-25T23:56:50.544Z,4.63
2018-08-25T23:59:18.145Z,4.13
